Time;durP1;ratioP1;P1;durP2;ratioP2;P2;SDS_P1;SDS_P2;PMS_P1;PMS_P2;Temp;Humidity;BMP_temperature;BMP_pressure;BME280_temperature;BME280_humidity;BME280_pressure;Samples;Min_cycle;Max_cycle;Signal;HPM_P1;HPM_P2
2022/01/29 00:00:16;;;;;;;36.28;13.45;;;;;;;;;;5050769;28;20059;-74
2022/01/29 00:02:42;;;;;;;38.33;13.70;;;;;;;;;;5067469;28;20404;-73
2022/01/29 00:05:09;;;;;;;39.13;14.63;;;;;;;;;;5067628;28;20128;-75
2022/01/29 00:07:38;;;;;;;34.47;13.20;;;;;;;;;;5026019;28;20124;-73
2022/01/29 00:10:05;;;;;;;37.35;13.07;;;;;;;;;;5030939;28;20057;-75
2022/01/29 00:12:32;;;;;;;37.42;13.00;;;;;;;;;;5036971;28;20408;-75
2022/01/29 00:14:58;;;;;;;24.08;12.10;;;;;;;;;;5050563;28;20037;-75
2022/01/29 00:17:24;;;;;;;29.58;13.27;;;;;;;;;;5067869;28;20040;-74
2022/01/29 00:19:50;;;;;;;35.53;14.57;;;;;;;;;;5067646;28;20375;-74
2022/01/29 00:22:16;;;;;;;31.92;12.90;;;;;;;;;;5067451;28;20044;-74
2022/01/29 00:24:43;;;;;;;33.03;13.63;;;;;;;;;;5050790;28;20041;-73
2022/01/29 00:27:10;;;;;;;30.08;13.35;;;;;;;;;;5050950;28;20081;-73
2022/01/29 00:29:39;;;;;;;33.63;13.35;;;;;;;;;;5067235;28;20080;-76
2022/01/29 00:32:05;;;;;;;38.03;15.52;;;;;;;;;;5050212;28;20497;-74
2022/01/29 00:34:31;;;;;;;28.27;11.07;;;;;;;;;;5050430;28;20041;-73
2022/01/29 00:36:57;;;;;;;35.72;15.23;;;;;;;;;;5033995;28;20079;-73
2022/01/29 00:39:23;;;;;;;35.35;14.77;;;;;;;;;;5050587;28;20466;-76
2022/01/29 00:41:50;;;;;;;37.15;13.35;;;;;;;;;;5067208;28;20045;-75
2022/01/29 00:44:16;;;;;;;33.65;14.77;;;;;;;;;;5067233;28;20123;-75
2022/01/29 00:46:42;;;;;;;29.55;14.52;;;;;;;;;;5034223;28;20128;-75
2022/01/29 00:49:11;;;;;;;30.02;14.23;;;;;;;;;;5066986;28;20047;-75
2022/01/29 00:51:37;;;;;;;36.08;16.20;;;;;;;;;;5033546;28;20106;-76
2022/01/29 00:54:04;;;;;;;33.28;15.75;;;;;;;;;;5067032;28;20041;-74
2022/01/29 00:56:30;;;;;;;28.15;13.20;;;;;;;;;;5033593;28;20053;-73
2022/01/29 00:58:55;;;;;;;37.22;15.50;;;;;;;;;;5033688;28;20065;-74
2022/01/29 01:01:21;;;;;;;42.30;15.80;;;;;;;;;;5033787;28;20040;-73
2022/01/29 01:03:47;;;;;;;38.95;16.40;;;;;;;;;;5033554;28;20032;-74
2022/01/29 01:06:13;;;;;;;37.65;15.27;;;;;;;;;;5033929;28;20052;-74
2022/01/29 01:08:39;;;;;;;40.97;16.60;;;;;;;;;;5067055;28;20075;-77
2022/01/29 01:11:05;;;;;;;32.47;14.23;;;;;;;;;;5033363;28;20099;-75
2022/01/29 01:13:32;;;;;;;30.95;14.55;;;;;;;;;;5067022;28;20049;-75
2022/01/29 01:15:58;;;;;;;35.25;15.05;;;;;;;;;;5033410;28;20083;-74
2022/01/29 01:18:24;;;;;;;31.27;15.15;;;;;;;;;;5033717;28;20041;-74
2022/01/29 01:20:51;;;;;;;36.92;14.60;;;;;;;;;;5033358;28;20464;-75
2022/01/29 01:23:17;;;;;;;33.20;15.20;;;;;;;;;;5033155;28;20083;-73
2022/01/29 01:25:43;;;;;;;33.60;14.98;;;;;;;;;;5067464;28;20052;-75
2022/01/29 01:28:09;;;;;;;32.92;15.13;;;;;;;;;;5070774;28;20516;-74
2022/01/29 01:30:36;;;;;;;31.80;14.05;;;;;;;;;;5070917;28;20036;-75
2022/01/29 01:33:03;;;;;;;33.72;16.00;;;;;;;;;;5037496;28;20033;-75
2022/01/29 01:35:35;;;;;;;36.67;16.42;;;;;;;;;;5037606;28;20562;-75
2022/01/29 01:40:28;;;;;;;41.15;16.75;;;;;;;;;;5054248;28;20044;-75
2022/01/29 01:42:59;;;;;;;34.38;15.00;;;;;;;;;;5070452;28;20103;-73
2022/01/29 01:45:25;;;;;;;33.65;15.20;;;;;;;;;;5070849;28;20088;-74
2022/01/29 01:47:51;;;;;;;33.08;16.73;;;;;;;;;;5037063;28;20045;-73
2022/01/29 01:50:18;;;;;;;33.85;13.90;;;;;;;;;;5070193;28;20045;-74
2022/01/29 01:52:44;;;;;;;31.90;13.25;;;;;;;;;;5037409;28;20090;-74
2022/01/29 01:55:10;;;;;;;33.50;15.55;;;;;;;;;;5070227;28;20037;-73
2022/01/29 01:57:36;;;;;;;32.95;14.65;;;;;;;;;;5036886;28;20582;-76
2022/01/29 02:00:02;;;;;;;33.97;14.38;;;;;;;;;;5036932;28;20037;-74
2022/01/29 02:02:28;;;;;;;37.45;13.60;;;;;;;;;;5070451;28;20090;-75
2022/01/29 02:04:54;;;;;;;39.78;15.60;;;;;;;;;;5037044;28;20405;-75
2022/01/29 02:07:20;;;;;;;30.25;11.48;;;;;;;;;;5037154;28;20396;-75
2022/01/29 02:09:46;;;;;;;36.22;14.48;;;;;;;;;;5069834;28;20102;-73
2022/01/29 02:12:13;;;;;;;36.75;14.65;;;;;;;;;;5069995;28;20444;-75
2022/01/29 02:14:39;;;;;;;35.80;15.13;;;;;;;;;;5070285;28;20123;-75
2022/01/29 02:17:06;;;;;;;31.15;13.77;;;;;;;;;;5070104;28;20037;-73
2022/01/29 02:19:33;;;;;;;33.30;15.10;;;;;;;;;;5036728;28;20051;-75
2022/01/29 02:21:59;;;;;;;30.88;14.00;;;;;;;;;;5070102;28;20036;-73
2022/01/29 02:24:25;;;;;;;36.40;15.75;;;;;;;;;;5070103;28;20040;-75
2022/01/29 02:26:52;;;;;;;33.45;14.65;;;;;;;;;;5069726;28;20408;-75
2022/01/29 02:29:19;;;;;;;30.88;14.07;;;;;;;;;;5069559;28;20390;-75
2022/01/29 02:31:50;;;;;;;34.63;14.82;;;;;;;;;;5036343;28;20468;-76
2022/01/29 02:34:16;;;;;;;35.60;12.80;;;;;;;;;;5069643;28;20119;-75
2022/01/29 02:36:43;;;;;;;38.33;15.10;;;;;;;;;;5036080;28;20041;-77
2022/01/29 02:39:13;;;;;;;36.38;13.73;;;;;;;;;;5068973;28;20045;-73
2022/01/29 02:41:43;;;;;;;30.05;12.05;;;;;;;;;;5036179;28;20315;-75
2022/01/29 02:44:09;;;;;;;34.63;13.40;;;;;;;;;;5069319;28;20044;-74
2022/01/29 02:49:08;;;;;;;37.25;13.82;;;;;;;;;;5052941;28;20037;-75
2022/01/29 02:51:34;;;;;;;27.65;12.73;;;;;;;;;;5069220;28;20034;-77
2022/01/29 02:54:00;;;;;;;39.08;13.18;;;;;;;;;;5036078;28;20041;-75
2022/01/29 02:56:26;;;;;;;33.35;12.23;;;;;;;;;;5069593;28;20132;-74
2022/01/29 02:58:52;;;;;;;33.05;13.18;;;;;;;;;;5069347;28;20493;-76
2022/01/29 03:01:19;;;;;;;25.58;11.90;;;;;;;;;;5036165;28;20084;-74
2022/01/29 03:03:44;;;;;;;28.45;12.55;;;;;;;;;;5035890;28;20037;-75
2022/01/29 03:06:11;;;;;;;40.00;13.35;;;;;;;;;;5069025;28;20097;-76
2022/01/29 03:08:37;;;;;;;34.53;13.63;;;;;;;;;;5035746;28;20037;-74
2022/01/29 03:11:04;;;;;;;25.25;12.05;;;;;;;;;;5068724;28;20057;-74
2022/01/29 03:13:30;;;;;;;36.50;13.93;;;;;;;;;;5035682;28;20055;-75
2022/01/29 03:15:56;;;;;;;35.85;13.68;;;;;;;;;;5069159;28;20120;-74
2022/01/29 03:18:22;;;;;;;31.75;12.55;;;;;;;;;;5069092;28;20124;-75
2022/01/29 03:20:48;;;;;;;31.92;11.88;;;;;;;;;;5068740;28;20041;-75
2022/01/29 03:23:14;;;;;;;31.63;12.15;;;;;;;;;;5035735;28;20056;-73
2022/01/29 03:25:40;;;;;;;28.30;12.65;;;;;;;;;;5068350;28;20040;-74
2022/01/29 03:28:06;;;;;;;34.63;12.93;;;;;;;;;;5068588;28;20405;-74
2022/01/29 03:30:32;;;;;;;30.58;11.98;;;;;;;;;;5068458;28;20037;-73
2022/01/29 03:32:58;;;;;;;34.38;11.95;;;;;;;;;;5035177;28;20036;-74
2022/01/29 03:35:24;;;;;;;28.38;11.13;;;;;;;;;;5035356;28;20041;-73
2022/01/29 03:37:50;;;;;;;27.75;11.82;;;;;;;;;;5035155;28;20123;-74
2022/01/29 03:40:16;;;;;;;37.15;13.93;;;;;;;;;;5068473;28;20508;-76
2022/01/29 03:42:58;;;;;;;34.33;13.07;;;;;;;;;;5068557;28;20045;-73
2022/01/29 03:45:24;;;;;;;34.03;12.95;;;;;;;;;;5068137;28;20081;-75
2022/01/29 03:47:50;;;;;;;29.67;12.52;;;;;;;;;;5068602;28;20077;-74
2022/01/29 03:50:16;;;;;;;35.15;13.57;;;;;;;;;;5066643;28;20037;-74
2022/01/29 03:52:42;;;;;;;24.95;11.60;;;;;;;;;;5068054;28;20037;-76
2022/01/29 03:55:08;;;;;;;32.53;13.07;;;;;;;;;;5068360;28;20050;-72
2022/01/29 03:57:34;;;;;;;27.17;12.60;;;;;;;;;;5068551;28;20037;-75
2022/01/29 04:00:01;;;;;;;32.88;12.70;;;;;;;;;;5068176;28;20127;-74
2022/01/29 04:02:27;;;;;;;30.30;12.50;;;;;;;;;;5068004;28;20126;-75
2022/01/29 04:04:53;;;;;;;29.95;12.18;;;;;;;;;;5068155;28;20103;-76
2022/01/29 04:07:19;;;;;;;27.25;13.05;;;;;;;;;;5067915;28;20485;-76
2022/01/29 04:09:49;;;;;;;29.27;13.00;;;;;;;;;;5067620;28;20049;-73
2022/01/29 04:12:15;;;;;;;29.60;11.80;;;;;;;;;;5034491;28;20037;-75
2022/01/29 04:14:41;;;;;;;27.83;11.82;;;;;;;;;;5067681;28;20037;-73
2022/01/29 04:17:08;;;;;;;26.17;12.02;;;;;;;;;;5034445;28;20073;-74
2022/01/29 04:19:34;;;;;;;37.05;14.15;;;;;;;;;;5067726;28;20041;-73
2022/01/29 04:22:01;;;;;;;31.65;13.70;;;;;;;;;;5067519;28;20424;-72
2022/01/29 04:24:28;;;;;;;28.90;13.07;;;;;;;;;;5034260;28;20045;-74
2022/01/29 04:26:54;;;;;;;32.53;12.73;;;;;;;;;;5034065;28;20041;-74
2022/01/29 04:29:20;;;;;;;28.88;12.40;;;;;;;;;;5034375;28;20139;-73
2022/01/29 04:32:06;;;;;;;30.02;12.38;;;;;;;;;;5034143;28;20033;-73
2022/01/29 04:34:32;;;;;;;27.55;11.55;;;;;;;;;;5034112;28;20075;-75
2022/01/29 04:36:58;;;;;;;28.23;12.25;;;;;;;;;;5067325;28;20033;-73
2022/01/29 04:39:24;;;;;;;27.38;11.55;;;;;;;;;;5067819;28;20045;-76
2022/01/29 04:41:50;;;;;;;29.33;12.88;;;;;;;;;;5034159;28;20049;-73
2022/01/29 04:44:17;;;;;;;27.83;11.70;;;;;;;;;;5067410;28;20045;-73
2022/01/29 04:46:43;;;;;;;29.40;12.90;;;;;;;;;;5067033;28;20124;-74
2022/01/29 04:49:09;;;;;;;27.35;10.95;;;;;;;;;;5067409;28;20044;-73
2022/01/29 04:51:35;;;;;;;26.10;10.75;;;;;;;;;;5033719;28;20393;-74
2022/01/29 04:54:02;;;;;;;32.42;11.93;;;;;;;;;;5067020;28;20044;-74
2022/01/29 04:56:28;;;;;;;28.70;10.85;;;;;;;;;;5034031;28;20037;-77
2022/01/29 04:58:54;;;;;;;24.02;11.00;;;;;;;;;;5033932;28;20408;-75
2022/01/29 05:01:20;;;;;;;26.20;11.38;;;;;;;;;;5066544;28;20048;-76
2022/01/29 05:03:46;;;;;;;26.63;10.60;;;;;;;;;;5066981;28;20085;-74
2022/01/29 05:06:12;;;;;;;26.95;10.40;;;;;;;;;;5067240;28;20468;-74
2022/01/29 05:08:38;;;;;;;26.33;11.57;;;;;;;;;;5033819;28;20141;-75
2022/01/29 05:11:06;;;;;;;24.15;10.85;;;;;;;;;;5066605;28;20059;-73
2022/01/29 05:13:34;;;;;;;25.88;11.23;;;;;;;;;;5066881;28;20405;-75
2022/01/29 05:27:08;;;;;;;22.45;10.27;;;;;;;;;;5050021;28;20049;-74
2022/01/29 05:29:34;;;;;;;21.63;9.63;;;;;;;;;;5066458;28;20055;-76
2022/01/29 05:32:02;;;;;;;20.35;9.43;;;;;;;;;;5033609;28;20037;-74
2022/01/29 05:34:28;;;;;;;22.52;9.43;;;;;;;;;;5033364;28;20504;-75
2022/01/29 05:36:54;;;;;;;23.48;9.50;;;;;;;;;;5066553;28;20090;-75
2022/01/29 05:39:20;;;;;;;24.77;10.65;;;;;;;;;;5033461;28;20118;-74
2022/01/29 05:41:46;;;;;;;28.65;10.88;;;;;;;;;;5033170;28;20044;-73
2022/01/29 05:44:12;;;;;;;26.92;9.27;;;;;;;;;;5066559;28;20060;-76
2022/01/29 05:46:39;;;;;;;24.95;10.05;;;;;;;;;;5033724;28;20679;-75
2022/01/29 05:49:05;;;;;;;25.48;10.55;;;;;;;;;;5033470;28;20481;-74
2022/01/29 05:51:31;;;;;;;24.40;12.43;;;;;;;;;;5032991;28;20049;-74
2022/01/29 05:53:58;;;;;;;20.67;10.02;;;;;;;;;;5066710;28;20045;-73
2022/01/29 05:56:24;;;;;;;25.10;9.43;;;;;;;;;;5066322;28;20092;-75
2022/01/29 05:58:50;;;;;;;23.73;9.27;;;;;;;;;;5033069;28;20041;-72
2022/01/29 06:01:16;;;;;;;20.95;10.10;;;;;;;;;;5032881;28;20041;-76
2022/01/29 06:03:42;;;;;;;19.67;9.13;;;;;;;;;;5066711;28;20049;-73
2022/01/29 06:06:08;;;;;;;23.27;10.20;;;;;;;;;;5033530;28;20052;-74
2022/01/29 06:08:34;;;;;;;20.52;9.25;;;;;;;;;;5032954;28;20037;-74
2022/01/29 06:11:00;;;;;;;21.48;9.68;;;;;;;;;;5066104;28;20049;-74
2022/01/29 06:13:26;;;;;;;21.90;9.93;;;;;;;;;;5068602;28;20458;-73
2022/01/29 06:15:53;;;;;;;23.95;10.40;;;;;;;;;;5070075;28;20045;-73
2022/01/29 06:18:20;;;;;;;18.23;8.35;;;;;;;;;;5069898;28;20178;-74
2022/01/29 06:20:53;;;;;;;23.58;8.30;;;;;;;;;;5036884;28;20041;-74
2022/01/29 06:23:30;;;;;;;17.95;8.05;;;;;;;;;;5068942;28;20045;-73
2022/01/29 06:25:57;;;;;;;18.25;8.57;;;;;;;;;;5052060;28;20191;-73
2022/01/29 06:28:23;;;;;;;22.30;9.32;;;;;;;;;;5051799;28;20072;-74
2022/01/29 06:30:49;;;;;;;21.08;8.82;;;;;;;;;;5068450;28;20550;-74
2022/01/29 06:33:15;;;;;;;20.92;9.80;;;;;;;;;;5051711;28;20029;-75
2022/01/29 06:35:42;;;;;;;24.00;8.90;;;;;;;;;;5051850;28;20194;-75
2022/01/29 06:38:09;;;;;;;17.63;8.23;;;;;;;;;;5052011;28;20087;-74
2022/01/29 06:40:35;;;;;;;18.75;9.13;;;;;;;;;;5029392;28;20069;-74
2022/01/29 06:43:03;;;;;;;19.35;8.93;;;;;;;;;;5032367;28;20410;-75
2022/01/29 06:45:29;;;;;;;21.92;8.68;;;;;;;;;;5015840;28;20065;-72
2022/01/29 06:47:55;;;;;;;19.90;8.55;;;;;;;;;;5016086;28;20417;-74
2022/01/29 06:50:21;;;;;;;21.17;7.47;;;;;;;;;;5032605;28;20042;-75
2022/01/29 06:52:47;;;;;;;17.95;9.30;;;;;;;;;;5016031;28;20045;-74
2022/01/29 06:55:13;;;;;;;21.60;8.50;;;;;;;;;;5032902;28;20504;-74
2022/01/29 06:57:39;;;;;;;15.20;7.68;;;;;;;;;;5016544;28;20037;-73
2022/01/29 07:00:08;;;;;;;19.63;8.88;;;;;;;;;;5032793;28;20084;-75
2022/01/29 07:02:35;;;;;;;16.90;7.47;;;;;;;;;;5015860;28;20090;-74
2022/01/29 07:05:01;;;;;;;13.80;7.40;;;;;;;;;;5016092;28;20472;-73
2022/01/29 07:07:27;;;;;;;16.00;7.75;;;;;;;;;;5032424;28;20049;-73
2022/01/29 07:09:53;;;;;;;18.42;8.40;;;;;;;;;;5016005;28;20059;-75
2022/01/29 07:12:19;;;;;;;16.10;7.82;;;;;;;;;;5032367;28;20045;-74
2022/01/29 07:14:49;;;;;;;14.93;7.80;;;;;;;;;;5032718;28;20049;-74
2022/01/29 07:17:17;;;;;;;15.23;7.28;;;;;;;;;;5015837;28;20068;-73
2022/01/29 07:19:43;;;;;;;15.95;7.13;;;;;;;;;;5032161;28;20132;-75
2022/01/29 07:22:09;;;;;;;19.15;7.55;;;;;;;;;;5015945;28;20041;-73
2022/01/29 07:24:36;;;;;;;18.55;7.47;;;;;;;;;;5032073;28;20118;-73
2022/01/29 07:27:02;;;;;;;16.45;7.18;;;;;;;;;;5015641;28;20068;-72
2022/01/29 07:29:28;;;;;;;16.02;6.60;;;;;;;;;;5015876;28;20084;-73
2022/01/29 07:31:56;;;;;;;15.65;6.47;;;;;;;;;;5016446;28;20087;-78
2022/01/29 07:34:22;;;;;;;18.67;7.85;;;;;;;;;;5030835;28;20906;-75
2022/01/29 07:36:48;;;;;;;14.25;7.32;;;;;;;;;;5028903;28;20042;-73
2022/01/29 07:39:14;;;;;;;13.95;6.53;;;;;;;;;;5028324;28;20052;-75
2022/01/29 07:41:40;;;;;;;11.88;5.90;;;;;;;;;;5028244;28;20049;-77
2022/01/29 07:44:06;;;;;;;15.88;7.78;;;;;;;;;;5028543;28;20098;-74
2022/01/29 07:46:32;;;;;;;16.52;7.95;;;;;;;;;;5028078;28;20121;-74
2022/01/29 07:48:58;;;;;;;14.88;6.63;;;;;;;;;;5011740;28;20183;-74
2022/01/29 07:51:24;;;;;;;15.23;6.07;;;;;;;;;;5011425;28;20337;-72
2022/01/29 07:53:49;;;;;;;14.88;6.30;;;;;;;;;;5028824;28;20160;-74
2022/01/29 07:56:15;;;;;;;14.85;6.55;;;;;;;;;;5028493;28;20077;-73
2022/01/29 07:58:41;;;;;;;16.33;6.82;;;;;;;;;;5011622;28;20041;-72
2022/01/29 08:01:07;;;;;;;15.75;6.18;;;;;;;;;;5028166;28;20053;-73
2022/01/29 08:03:33;;;;;;;14.27;6.88;;;;;;;;;;5027753;28;20052;-72
2022/01/29 08:05:59;;;;;;;14.80;6.60;;;;;;;;;;5011331;28;20056;-73
2022/01/29 08:08:25;;;;;;;13.20;6.53;;;;;;;;;;5011367;28;20103;-73
2022/01/29 08:10:52;;;;;;;16.67;7.57;;;;;;;;;;5027662;28;20107;-74
2022/01/29 08:13:19;;;;;;;14.52;6.93;;;;;;;;;;5027797;28;20413;-71
2022/01/29 08:15:45;;;;;;;18.35;8.00;;;;;;;;;;5027238;28;20041;-72
2022/01/29 08:18:11;;;;;;;22.55;8.85;;;;;;;;;;5027705;28;20045;-73
2022/01/29 08:20:37;;;;;;;17.23;7.88;;;;;;;;;;5027801;28;20072;-72
2022/01/29 08:23:07;;;;;;;19.38;7.82;;;;;;;;;;5010972;28;20584;-72
2022/01/29 08:25:33;;;;;;;18.98;8.43;;;;;;;;;;5011248;28;20045;-71
2022/01/29 08:27:59;;;;;;;14.98;8.25;;;;;;;;;;5027433;28;20067;-73
2022/01/29 08:30:25;;;;;;;19.67;9.18;;;;;;;;;;5027151;28;20045;-72
2022/01/29 08:32:51;;;;;;;20.48;8.82;;;;;;;;;;5027084;28;20044;-73
2022/01/29 08:35:17;;;;;;;19.95;8.43;;;;;;;;;;5010240;28;20375;-73
2022/01/29 08:37:43;;;;;;;12.90;7.35;;;;;;;;;;5010782;28;20095;-73
2022/01/29 08:40:10;;;;;;;15.95;8.02;;;;;;;;;;5010336;28;20038;-73
2022/01/29 08:42:36;;;;;;;14.45;7.88;;;;;;;;;;5027224;28;20081;-72
2022/01/29 08:45:02;;;;;;;15.43;8.20;;;;;;;;;;5010672;28;20108;-71
2022/01/29 08:47:28;;;;;;;15.65;8.13;;;;;;;;;;5010772;28;20088;-72
2022/01/29 08:49:55;;;;;;;14.18;7.43;;;;;;;;;;5027796;28;20087;-72
2022/01/29 08:52:21;;;;;;;22.45;8.60;;;;;;;;;;5011186;28;20056;-71
2022/01/29 08:54:47;;;;;;;19.02;7.22;;;;;;;;;;5028297;28;20043;-72
2022/01/29 08:57:13;;;;;;;15.70;7.07;;;;;;;;;;5011941;28;20040;-73
2022/01/29 08:59:39;;;;;;;17.27;7.35;;;;;;;;;;5010458;28;20485;-74
2022/01/29 09:02:05;;;;;;;16.55;6.32;;;;;;;;;;5033570;28;20040;-73
2022/01/29 09:04:31;;;;;;;11.43;5.57;;;;;;;;;;5029722;28;20045;-73
2022/01/29 09:06:57;;;;;;;10.77;6.22;;;;;;;;;;5047156;28;20056;-72
2022/01/29 09:09:26;;;;;;;12.82;5.35;;;;;;;;;;5046413;28;20071;-73
2022/01/29 09:11:52;;;;;;;13.27;6.22;;;;;;;;;;5046718;28;20106;-72
2022/01/29 09:14:18;;;;;;;12.35;6.50;;;;;;;;;;5047043;28;20041;-73
2022/01/29 09:16:44;;;;;;;8.98;4.57;;;;;;;;;;5046492;28;20536;-71
2022/01/29 09:19:11;;;;;;;12.82;5.45;;;;;;;;;;5046672;28;20110;-74
2022/01/29 09:21:37;;;;;;;12.20;4.88;;;;;;;;;;5046581;28;20431;-74
2022/01/29 09:24:03;;;;;;;10.02;4.72;;;;;;;;;;5046883;28;20079;-72
2022/01/29 09:26:29;;;;;;;11.10;4.68;;;;;;;;;;5046519;28;20052;-73
2022/01/29 09:28:54;;;;;;;10.43;4.63;;;;;;;;;;5046362;28;20573;-73
2022/01/29 09:31:21;;;;;;;9.18;4.18;;;;;;;;;;5046774;28;20037;-75
2022/01/29 09:33:47;;;;;;;10.80;4.03;;;;;;;;;;5046739;28;20041;-71
2022/01/29 09:36:13;;;;;;;13.48;5.40;;;;;;;;;;5046698;28;20041;-73
2022/01/29 09:38:39;;;;;;;9.98;4.05;;;;;;;;;;5046630;28;20508;-71
2022/01/29 09:41:05;;;;;;;10.48;4.30;;;;;;;;;;5046266;28;20444;-72
2022/01/29 09:43:32;;;;;;;7.88;3.80;;;;;;;;;;5046474;28;20080;-72
2022/01/29 09:45:58;;;;;;;9.90;3.92;;;;;;;;;;5046314;28;20384;-71
2022/01/29 09:48:25;;;;;;;7.03;3.80;;;;;;;;;;5066915;28;20413;-73
2022/01/29 09:50:52;;;;;;;7.70;3.15;;;;;;;;;;5066999;28;20037;-74
2022/01/29 09:53:18;;;;;;;10.90;4.10;;;;;;;;;;5066645;28;20041;-72
2022/01/29 09:55:44;;;;;;;7.03;3.15;;;;;;;;;;5033730;28;20128;-74
2022/01/29 09:58:10;;;;;;;11.00;4.18;;;;;;;;;;5068335;28;20037;-71
2022/01/29 10:00:37;;;;;;;8.20;4.25;;;;;;;;;;5070295;28;20045;-75
2022/01/29 10:03:13;;;;;;;6.90;3.60;;;;;;;;;;5036976;28;20099;-72
2022/01/29 10:05:43;;;;;;;7.00;3.78;;;;;;;;;;5070547;28;20098;-71
2022/01/29 10:08:10;;;;;;;6.80;3.38;;;;;;;;;;5070320;28;20037;-74
2022/01/29 10:10:41;;;;;;;5.15;3.20;;;;;;;;;;5069724;28;20048;-73
2022/01/29 10:13:22;;;;;;;9.32;3.75;;;;;;;;;;5070094;28;20049;-76
2022/01/29 10:15:50;;;;;;;7.05;3.08;;;;;;;;;;5036661;28;20033;-74
2022/01/29 10:18:22;;;;;;;7.80;3.45;;;;;;;;;;5069960;28;20051;-73
2022/01/29 10:20:49;;;;;;;6.65;3.58;;;;;;;;;;5070188;28;20037;-75
2022/01/29 10:23:15;;;;;;;9.00;3.40;;;;;;;;;;5069904;28;20045;-74
2022/01/29 10:25:43;;;;;;;7.53;2.70;;;;;;;;;;5070268;28;20051;-75
2022/01/29 10:28:10;;;;;;;7.32;3.00;;;;;;;;;;5029098;28;20047;-79
2022/01/29 10:30:37;;;;;;;6.97;3.38;;;;;;;;;;5033077;28;20151;-74
2022/01/29 10:33:22;;;;;;;6.35;3.25;;;;;;;;;;5017051;28;20482;-73
2022/01/29 10:35:49;;;;;;;5.38;3.38;;;;;;;;;;5033024;28;20038;-76
2022/01/29 10:38:18;;;;;;;6.78;3.60;;;;;;;;;;5033139;28;20060;-72
2022/01/29 10:40:44;;;;;;;5.05;3.60;;;;;;;;;;5016482;28;20037;-72
2022/01/29 10:43:10;;;;;;;12.07;4.03;;;;;;;;;;5016258;28;20043;-71
2022/01/29 10:45:37;;;;;;;8.00;3.20;;;;;;;;;;5016228;28;20041;-74
2022/01/29 10:48:05;;;;;;;11.10;3.72;;;;;;;;;;5032845;28;20053;-74
2022/01/29 10:50:31;;;;;;;6.10;3.03;;;;;;;;;;5033125;28;20042;-77
2022/01/29 10:52:58;;;;;;;6.55;3.20;;;;;;;;;;5032987;28;20120;-73
2022/01/29 10:55:24;;;;;;;15.68;3.70;;;;;;;;;;5032667;28;20048;-76
2022/01/29 10:57:50;;;;;;;5.03;3.17;;;;;;;;;;5032474;28;20045;-76
2022/01/29 11:00:24;;;;;;;8.88;3.10;;;;;;;;;;5032181;28;20081;-74
2022/01/29 11:02:51;;;;;;;4.40;3.30;;;;;;;;;;5016125;28;20084;-73
2022/01/29 11:05:18;;;;;;;7.05;2.97;;;;;;;;;;5016077;28;20041;-75
2022/01/29 11:07:52;;;;;;;9.95;3.08;;;;;;;;;;5015997;28;20041;-75
2022/01/29 11:10:19;;;;;;;9.45;2.85;;;;;;;;;;5032897;28;20064;-74
2022/01/29 11:12:47;;;;;;;5.90;2.88;;;;;;;;;;5035674;28;20044;-72
2022/01/29 11:15:15;;;;;;;7.95;3.22;;;;;;;;;;5068982;28;20397;-74
2022/01/29 11:17:42;;;;;;;6.45;2.38;;;;;;;;;;5031560;28;20393;-73
2022/01/29 11:20:08;;;;;;;6.97;2.33;;;;;;;;;;5032608;28;20045;-78
2022/01/29 11:22:35;;;;;;;6.93;2.70;;;;;;;;;;5015941;28;20401;-74
2022/01/29 11:25:03;;;;;;;9.50;2.60;;;;;;;;;;5015707;28;20454;-79
2022/01/29 11:27:33;;;;;;;4.78;2.40;;;;;;;;;;5015593;28;20038;-75
2022/01/29 11:30:09;;;;;;;8.57;2.10;;;;;;;;;;5040410;28;20041;-74
2022/01/29 11:32:42;;;;;;;9.43;3.08;;;;;;;;;;5026388;28;20049;-75
2022/01/29 11:35:23;;;;;;;7.07;2.33;;;;;;;;;;5027248;28;20029;-73
2022/01/29 11:38:06;;;;;;;7.55;2.63;;;;;;;;;;5049694;28;20076;-76
2022/01/29 11:40:44;;;;;;;8.80;2.35;;;;;;;;;;5050679;28;20057;-74
2022/01/29 11:43:19;;;;;;;8.32;2.20;;;;;;;;;;5049825;28;20131;-73
2022/01/29 11:45:53;;;;;;;4.40;1.70;;;;;;;;;;5052002;28;20048;-73
2022/01/29 11:48:26;;;;;;;4.57;2.28;;;;;;;;;;5051542;28;20080;-74
2022/01/29 11:50:56;;;;;;;7.85;2.22;;;;;;;;;;5051666;28;20485;-74
2022/01/29 11:53:23;;;;;;;4.43;1.80;;;;;;;;;;5051829;28;20041;-75
2022/01/29 11:55:58;;;;;;;3.08;1.73;;;;;;;;;;5051809;28;20401;-74
2022/01/29 11:58:28;;;;;;;3.90;1.70;;;;;;;;;;5051440;28;20044;-76
2022/01/29 12:01:02;;;;;;;4.50;2.28;;;;;;;;;;5047449;28;20142;-76
2022/01/29 12:03:38;;;;;;;9.38;2.22;;;;;;;;;;5048354;28;20048;-78
2022/01/29 12:06:33;;;;;;;5.82;1.75;;;;;;;;;;5047549;28;20076;-74
2022/01/29 12:09:06;;;;;;;4.53;1.70;;;;;;;;;;5047830;28;20160;-75
2022/01/29 12:11:35;;;;;;;5.25;1.40;;;;;;;;;;5046889;28;20523;-73
2022/01/29 12:14:13;;;;;;;3.83;1.85;;;;;;;;;;5048023;28;20455;-76
2022/01/29 12:16:56;;;;;;;3.50;1.60;;;;;;;;;;5047440;28;20519;-76
2022/01/29 12:19:41;;;;;;;5.22;2.05;;;;;;;;;;5048334;28;20270;-74
2022/01/29 12:22:10;;;;;;;4.93;1.60;;;;;;;;;;5047725;28;20041;-78
2022/01/29 12:24:36;;;;;;;4.90;1.60;;;;;;;;;;5047980;28;20427;-76
2022/01/29 12:27:03;;;;;;;4.90;1.80;;;;;;;;;;5047626;28;20570;-73
2022/01/29 12:29:29;;;;;;;4.05;1.10;;;;;;;;;;5047267;28;20041;-75
2022/01/29 12:31:59;;;;;;;4.20;1.20;;;;;;;;;;5047937;28;20128;-76
2022/01/29 12:34:26;;;;;;;10.55;1.75;;;;;;;;;;5047247;28;20040;-78
2022/01/29 12:36:52;;;;;;;4.47;1.30;;;;;;;;;;5047401;28;20417;-75
2022/01/29 12:39:23;;;;;;;4.57;1.20;;;;;;;;;;5047565;28;20384;-76
2022/01/29 12:44:37;;;;;;;11.82;1.63;;;;;;;;;;5048042;28;20055;-76
2022/01/29 12:47:03;;;;;;;2.40;1.02;;;;;;;;;;5047779;28;20041;-76
2022/01/29 12:49:39;;;;;;;6.70;1.38;;;;;;;;;;5064153;28;20041;-78
2022/01/29 12:52:06;;;;;;;7.15;2.25;;;;;;;;;;5030823;28;20068;-75
2022/01/29 12:54:34;;;;;;;5.03;2.15;;;;;;;;;;5030952;28;20071;-75
2022/01/29 12:57:00;;;;;;;4.63;1.65;;;;;;;;;;5063530;28;20052;-79
2022/01/29 12:59:26;;;;;;;4.15;1.23;;;;;;;;;;5047434;28;20128;-76
2022/01/29 13:01:56;;;;;;;9.93;1.58;;;;;;;;;;5047308;28;20049;-76
2022/01/29 13:04:23;;;;;;;8.70;1.40;;;;;;;;;;5046991;28;20386;-76
2022/01/29 13:06:58;;;;;;;3.40;1.40;;;;;;;;;;5047146;28;20036;-78
2022/01/29 13:09:29;;;;;;;4.32;1.10;;;;;;;;;;5046900;28;20144;-73
2022/01/29 13:11:59;;;;;;;4.88;1.15;;;;;;;;;;5046814;28;20405;-78
2022/01/29 13:14:25;;;;;;;3.53;1.20;;;;;;;;;;5047471;28;20044;-76
2022/01/29 13:16:53;;;;;;;4.07;1.30;;;;;;;;;;5046412;28;20279;-74
2022/01/29 13:19:21;;;;;;;7.15;1.88;;;;;;;;;;5043061;28;20135;-78
2022/01/29 13:21:47;;;;;;;6.80;1.42;;;;;;;;;;5029907;28;20103;-74
2022/01/29 13:24:50;;;;;;;3.80;1.50;;;;;;;;;;5030547;28;20111;-76
2022/01/29 13:27:18;;;;;;;4.10;1.27;;;;;;;;;;5048155;28;20053;-75
2022/01/29 13:29:46;;;;;;;5.38;1.50;;;;;;;;;;5048289;28;20049;-78
2022/01/29 13:32:16;;;;;;;3.72;1.33;;;;;;;;;;5031407;28;20143;-72
2022/01/29 13:34:46;;;;;;;4.53;1.30;;;;;;;;;;5029920;28;20045;-79
2022/01/29 13:37:31;;;;;;;4.78;1.40;;;;;;;;;;5029989;28;20128;-75
2022/01/29 13:39:57;;;;;;;5.15;1.25;;;;;;;;;;5046137;28;20048;-74
2022/01/29 13:42:26;;;;;;;6.13;1.15;;;;;;;;;;5046005;28;20593;-75
2022/01/29 13:45:23;;;;;;;8.35;1.05;;;;;;;;;;5029653;28;20632;-74
2022/01/29 13:48:03;;;;;;;5.28;1.27;;;;;;;;;;5046053;28;20056;-76
2022/01/29 13:50:31;;;;;;;7.93;1.87;;;;;;;;;;5029763;28;20077;-77
2022/01/29 13:53:08;;;;;;;7.97;1.95;;;;;;;;;;5030088;28;20131;-75
2022/01/29 13:55:35;;;;;;;6.32;1.42;;;;;;;;;;5046753;28;20036;-78
2022/01/29 13:58:05;;;;;;;8.75;2.45;;;;;;;;;;5030185;28;20484;-76
2022/01/29 14:00:49;;;;;;;9.10;2.00;;;;;;;;;;5046794;28;20523;-77
2022/01/29 14:03:16;;;;;;;9.35;2.42;;;;;;;;;;5030189;28;20055;-77
2022/01/29 14:05:41;;;;;;;5.30;1.73;;;;;;;;;;5029614;28;20049;-76
2022/01/29 14:08:22;;;;;;;6.82;2.33;;;;;;;;;;5046797;28;20405;-75
2022/01/29 14:10:58;;;;;;;8.73;2.17;;;;;;;;;;5029676;28;20451;-74
2022/01/29 14:13:30;;;;;;;3.97;1.38;;;;;;;;;;5030054;28;20627;-79
2022/01/29 14:15:55;;;;;;;3.95;1.40;;;;;;;;;;5046313;28;20044;-79
2022/01/29 14:18:21;;;;;;;6.05;1.77;;;;;;;;;;5046651;28;20397;-74
2022/01/29 14:20:47;;;;;;;6.82;1.88;;;;;;;;;;5046396;28;20044;-74
2022/01/29 14:23:13;;;;;;;5.50;1.45;;;;;;;;;;5046520;28;20041;-78
2022/01/29 14:25:39;;;;;;;1.98;1.40;;;;;;;;;;5029954;28;20516;-76
2022/01/29 14:28:06;;;;;;;7.13;1.45;;;;;;;;;;5045943;28;20438;-75
2022/01/29 14:30:33;;;;;;;6.88;1.42;;;;;;;;;;5046577;28;20056;-75
2022/01/29 14:33:00;;;;;;;5.00;1.73;;;;;;;;;;5047729;28;20033;-79
2022/01/29 14:35:26;;;;;;;8.25;1.50;;;;;;;;;;5037204;28;20033;-73
2022/01/29 14:37:53;;;;;;;2.60;0.82;;;;;;;;;;5036896;28;20047;-78
2022/01/29 14:40:19;;;;;;;8.70;2.67;;;;;;;;;;5037471;28;20393;-75
2022/01/29 14:42:46;;;;;;;5.05;1.63;;;;;;;;;;5037333;28;20052;-79
2022/01/29 14:45:14;;;;;;;5.78;1.70;;;;;;;;;;5054377;28;20041;-79
2022/01/29 14:47:45;;;;;;;3.72;1.45;;;;;;;;;;5037895;28;20139;-76
2022/01/29 14:50:11;;;;;;;5.60;1.33;;;;;;;;;;5038279;28;20045;-76